createdAt,value
2023-10-26T00:00:42.278Z,99728.98
2023-10-26T00:01:44.325Z,99730.69
2023-10-26T00:02:46.337Z,99734.19
2023-10-26T00:03:48.528Z,99723.72
2023-10-26T00:04:50.698Z,99724.58
2023-10-26T00:05:52.667Z,99727.19
2023-10-26T00:06:55.133Z,99730.66
2023-10-26T00:07:57.069Z,99731.54
2023-10-26T00:08:59.069Z,99727.16
2023-10-26T00:10:00.988Z,99728.02
2023-10-26T00:11:03.032Z,99726.25
2023-10-26T00:12:05.357Z,99727.95
2023-10-26T00:13:08.856Z,99727.08
2023-10-26T00:14:10.948Z,99733.16
2023-10-26T00:15:12.923Z,99728.81
2023-10-26T00:16:14.939Z,99729.66
2023-10-26T00:17:16.901Z,99721.81
2023-10-26T00:18:18.957Z,99727.90
2023-10-26T00:19:21.154Z,99720.05
2023-10-26T00:20:23.172Z,99716.53
2023-10-26T00:21:25.138Z,99710.45
2023-10-26T00:22:27.172Z,99713.91
2023-10-26T00:23:29.224Z,99713.91
2023-10-26T00:24:31.168Z,99719.11
2023-10-26T00:25:33.120Z,99714.77
2023-10-26T00:26:35.085Z,99711.27
2023-10-26T00:27:37.031Z,99711.27
2023-10-26T00:28:38.981Z,99706.92
2023-10-26T00:29:40.936Z,99706.00
2023-10-26T00:30:43.092Z,99698.16
2023-10-26T00:31:45.047Z,99706.86
2023-10-26T00:32:47.294Z,99707.73
2023-10-26T00:33:49.272Z,99706.89
2023-10-26T00:34:51.309Z,99706.86
2023-10-26T00:35:53.291Z,99704.24
2023-10-26T00:36:55.530Z,99699.89
2023-10-26T00:37:57.873Z,99696.40
2023-10-26T00:38:59.751Z,99698.09
2023-10-26T00:40:01.702Z,99696.37
2023-10-26T00:41:03.732Z,99695.45
2023-10-26T00:42:05.644Z,99694.60
2023-10-26T00:43:07.660Z,99698.06
2023-10-26T00:44:09.689Z,99698.06
2023-10-26T00:45:11.581Z,99700.69
2023-10-26T00:46:13.603Z,99698.95
2023-10-26T00:47:15.546Z,99695.42
2023-10-26T00:48:17.630Z,99698.03
2023-10-26T00:49:19.905Z,99691.08
2023-10-26T00:50:22.133Z,99685.84
2023-10-26T00:51:24.422Z,99685.84
2023-10-26T00:52:26.443Z,99686.72
2023-10-26T00:53:28.390Z,99686.72
2023-10-26T00:54:30.344Z,99689.34
2023-10-26T00:55:32.394Z,99693.72
2023-10-26T00:56:34.650Z,99686.72
2023-10-26T00:57:36.702Z,99681.49
2023-10-26T00:58:38.657Z,99693.69
2023-10-26T00:59:40.629Z,99693.69
2023-10-26T01:00:42.768Z,99691.08
2023-10-26T01:01:44.623Z,99692.77
2023-10-26T01:02:46.712Z,99695.39
2023-10-26T01:03:48.749Z,99700.59
2023-10-26T01:04:51.097Z,99700.59
2023-10-26T01:05:53.230Z,99707.59
2023-10-26T01:06:55.216Z,99700.62
2023-10-26T01:07:57.154Z,99696.27
2023-10-26T01:08:59.041Z,99704.09
2023-10-26T01:10:01.083Z,99693.66
2023-10-26T01:11:03.121Z,99696.24
2023-10-26T01:12:04.937Z,99696.24
2023-10-26T01:13:06.820Z,99702.32
2023-10-26T01:14:08.767Z,99706.70
2023-10-26T01:15:10.972Z,99704.97
2023-10-26T01:16:13.088Z,99697.13
2023-10-26T01:17:15.038Z,99693.66
2023-10-26T01:18:17.228Z,99697.13
2023-10-26T01:19:19.382Z,99701.47
2023-10-26T01:20:21.441Z,99696.24
2023-10-26T01:21:23.505Z,99697.09
2023-10-26T01:22:25.521Z,99697.94
2023-10-26T01:23:27.887Z,99691.83
2023-10-26T01:24:29.837Z,99691.83
2023-10-26T01:25:31.581Z,99688.33
2023-10-26T01:26:33.637Z,99691.80
2023-10-26T01:27:35.587Z,99690.91
2023-10-26T01:28:37.548Z,99690.95
2023-10-26T01:29:39.504Z,99691.83
2023-10-26T01:30:41.879Z,99690.03
2023-10-26T01:31:43.935Z,99690.91
2023-10-26T01:32:46.017Z,99684.80
2023-10-26T01:33:48.063Z,99689.15
2023-10-26T01:34:50.276Z,99692.62
2023-10-26T01:35:52.188Z,99690.88
2023-10-26T01:36:54.198Z,99695.20
2023-10-26T01:37:56.240Z,99695.23
2023-10-26T01:38:58.237Z,99690.91
2023-10-26T01:40:00.209Z,99695.23
2023-10-26T01:41:02.003Z,99690.91
2023-10-26T01:42:03.887Z,99701.38
2023-10-26T01:43:05.831Z,99697.03
2023-10-26T01:44:07.747Z,99698.77
2023-10-26T01:45:09.759Z,99702.27
2023-10-26T01:46:12.074Z,99696.14
2023-10-26T01:47:14.133Z,99697.84
2023-10-26T01:48:16.245Z,99693.50
2023-10-26T01:49:18.198Z,99690.88
2023-10-26T01:50:20.280Z,99683.03
2023-10-26T01:51:22.369Z,99684.73
2023-10-26T01:52:24.432Z,99691.70
2023-10-26T01:53:26.454Z,99689.09
2023-10-26T01:54:28.428Z,99694.28
2023-10-26T01:55:30.580Z,99697.78
2023-10-26T01:56:33.149Z,99691.67
2023-10-26T01:57:35.078Z,99689.94
2023-10-26T01:58:37.026Z,99684.70
2023-10-26T01:59:38.993Z,99687.32
2023-10-26T02:00:41.453Z,99699.48
2023-10-26T02:01:43.310Z,99695.98
2023-10-26T02:02:45.710Z,99687.29
2023-10-26T02:03:47.753Z,99685.52
2023-10-26T02:04:49.769Z,99688.11
2023-10-26T02:05:51.795Z,99683.69
2023-10-26T02:06:53.837Z,99682.84
2023-10-26T02:07:55.838Z,99685.42
2023-10-26T02:08:57.841Z,99678.45
2023-10-26T02:09:59.736Z,99684.55
2023-10-26T02:11:01.933Z,99678.42
2023-10-26T02:12:03.953Z,99688.01
2023-10-26T02:13:05.921Z,99688.01
2023-10-26T02:14:07.852Z,99679.31
2023-10-26T02:15:09.748Z,99680.16
2023-10-26T02:16:12.577Z,99676.69
2023-10-26T02:17:14.535Z,99674.92
2023-10-26T02:18:16.608Z,99674.92
2023-10-26T02:19:19.671Z,99672.31
2023-10-26T02:20:21.941Z,99674.08
2023-10-26T02:21:23.985Z,99671.49
2023-10-26T02:22:25.842Z,99672.34
2023-10-26T02:23:27.642Z,99667.99
2023-10-26T02:24:29.568Z,99671.49
2023-10-26T02:25:31.349Z,99674.99
2023-10-26T02:26:33.194Z,99666.30
2023-10-26T02:27:35.043Z,99671.52
2023-10-26T02:28:36.951Z,99674.14
2023-10-26T02:29:38.803Z,99671.52
2023-10-26T02:30:40.759Z,99662.80
2023-10-26T02:31:42.603Z,99674.14
2023-10-26T02:32:44.536Z,99659.36
2023-10-26T02:33:46.455Z,99659.36
2023-10-26T02:34:48.320Z,99661.98
2023-10-26T02:35:50.142Z,99657.63
2023-10-26T02:36:52.182Z,99668.09
2023-10-26T02:37:54.048Z,99665.51
2023-10-26T02:38:55.977Z,99663.77
2023-10-26T02:39:57.811Z,99666.39
2023-10-26T02:40:59.666Z,99663.77
2023-10-26T02:42:01.555Z,99668.16
2023-10-26T02:43:03.372Z,99668.16
2023-10-26T02:44:05.263Z,99670.77
2023-10-26T02:45:07.101Z,99673.39
2023-10-26T02:46:08.966Z,99674.27
2023-10-26T02:47:10.801Z,99678.66
2023-10-26T02:48:12.723Z,99681.30
2023-10-26T02:49:14.651Z,99682.16
2023-10-26T02:50:17.064Z,99675.22
2023-10-26T02:51:18.968Z,99669.98
2023-10-26T02:52:20.834Z,99676.92
2023-10-26T02:53:22.626Z,99669.98
2023-10-26T02:54:24.399Z,99668.28
2023-10-26T02:55:26.246Z,99669.11
2023-10-26T02:56:28.404Z,99670.05
2023-10-26T02:57:30.287Z,99660.44
2023-10-26T02:58:32.110Z,99663.94
2023-10-26T02:59:34.074Z,99663.09
2023-10-26T03:00:36.037Z,99663.13
2023-10-26T03:01:38.496Z,99664.00
2023-10-26T03:02:41.919Z,99654.42
2023-10-26T03:03:44.125Z,99657.92
2023-10-26T03:04:46.288Z,99646.61
2023-10-26T03:05:48.265Z,99656.19
2023-10-26T03:06:50.299Z,99650.95
2023-10-26T03:07:52.358Z,99650.95
2023-10-26T03:08:54.425Z,99653.58
2023-10-26T03:09:56.513Z,99657.11
2023-10-26T03:10:58.619Z,99660.57
2023-10-26T03:12:00.613Z,99660.60
2023-10-26T03:13:02.636Z,99659.75
2023-10-26T03:14:04.478Z,99665.83
2023-10-26T03:15:06.456Z,99660.60
2023-10-26T03:16:08.814Z,99661.48
2023-10-26T03:17:10.757Z,99663.25
2023-10-26T03:18:12.803Z,99655.41
2023-10-26T03:19:14.758Z,99654.55
2023-10-26T03:20:17.007Z,99655.41
2023-10-26T03:21:18.991Z,99661.52
2023-10-26T03:22:21.384Z,99657.17
2023-10-26T03:23:23.490Z,99663.28
2023-10-26T03:24:25.776Z,99658.05
2023-10-26T03:25:27.821Z,99658.05
2023-10-26T03:26:29.768Z,99660.67
2023-10-26T03:27:31.751Z,99658.05
2023-10-26T03:28:33.774Z,99653.70
2023-10-26T03:29:35.714Z,99660.67
2023-10-26T03:30:37.791Z,99658.05
2023-10-26T03:31:39.829Z,99658.05
2023-10-26T03:32:41.814Z,99664.13
2023-10-26T03:33:43.766Z,99670.25
2023-10-26T03:34:45.968Z,99662.44
2023-10-26T03:35:48.158Z,99665.89
2023-10-26T03:36:50.125Z,99658.94
2023-10-26T03:37:52.262Z,99658.94
2023-10-26T03:38:54.232Z,99652.86
2023-10-26T03:39:56.163Z,99657.23
2023-10-26T03:40:58.324Z,99655.50
2023-10-26T03:42:00.330Z,99653.77
2023-10-26T03:43:02.331Z,99652.03
2023-10-26T03:44:04.292Z,99647.69
2023-10-26T03:45:06.286Z,99659.91
2023-10-26T03:46:08.234Z,99667.75
2023-10-26T03:47:10.228Z,99664.26
2023-10-26T03:48:12.153Z,99662.53
2023-10-26T03:49:14.047Z,99667.75
2023-10-26T03:50:15.892Z,99673.05
2023-10-26T03:51:17.824Z,99673.05
2023-10-26T03:52:19.749Z,99670.46
2023-10-26T03:53:21.597Z,99671.38
2023-10-26T03:54:23.477Z,99676.64
2023-10-26T03:55:25.374Z,99676.63
2023-10-26T03:56:27.250Z,99672.28
2023-10-26T03:57:29.106Z,99675.78
2023-10-26T03:58:30.949Z,99674.93
2023-10-26T03:59:32.685Z,99674.08
2023-10-26T04:00:34.863Z,99673.20
2023-10-26T04:01:36.737Z,99677.58
2023-10-26T04:02:38.593Z,99675.84
2023-10-26T04:03:40.533Z,99674.99
2023-10-26T04:04:42.491Z,99668.09
2023-10-26T04:05:44.508Z,99680.22
2023-10-26T04:06:46.401Z,99674.14
2023-10-26T04:07:48.245Z,99675.88
2023-10-26T04:08:50.073Z,99672.41
2023-10-26T04:09:51.929Z,99668.91
2023-10-26T04:10:55.510Z,99669.77
2023-10-26T04:11:57.404Z,99663.66
2023-10-26T04:12:59.216Z,99667.12
2023-10-26T04:14:01.086Z,99659.30
2023-10-26T04:15:02.969Z,99667.97
2023-10-26T04:16:04.870Z,99674.93
2023-10-26T04:17:06.746Z,99672.31
2023-10-26T04:18:08.556Z,99681.89
2023-10-26T04:19:11.487Z,99674.90
2023-10-26T04:20:13.464Z,99677.48
2023-10-26T04:21:15.388Z,99681.86
2023-10-26T04:22:17.271Z,99678.34
2023-10-26T04:23:19.697Z,99673.08
2023-10-26T04:24:21.587Z,99682.66
2023-10-26T04:25:23.649Z,99690.47
2023-10-26T04:26:25.692Z,99686.97
2023-10-26T04:27:27.624Z,99688.67
2023-10-26T04:28:29.320Z,99688.67
2023-10-26T04:29:31.170Z,99688.67
2023-10-26T04:30:33.069Z,99690.34
2023-10-26T04:31:34.894Z,99690.34
2023-10-26T04:32:36.797Z,99698.19
2023-10-26T04:33:38.679Z,99699.08
2023-10-26T04:34:40.465Z,99692.93
2023-10-26T04:35:42.288Z,99696.42
2023-10-26T04:36:44.134Z,99695.52
2023-10-26T04:37:46.016Z,99695.48
2023-10-26T04:38:47.837Z,99697.22
2023-10-26T04:39:49.691Z,99691.95
2023-10-26T04:40:51.551Z,99687.58
2023-10-26T04:41:53.391Z,99691.08
2023-10-26T04:42:55.252Z,99689.31
2023-10-26T04:43:57.081Z,99686.66
2023-10-26T04:44:58.970Z,99684.08
2023-10-26T04:46:00.796Z,99682.28
2023-10-26T04:47:02.622Z,99677.05
2023-10-26T04:48:04.722Z,99684.86
2023-10-26T04:49:06.743Z,99680.48
2023-10-26T04:50:08.583Z,99674.38
2023-10-26T04:51:10.452Z,99676.11
2023-10-26T04:52:12.182Z,99684.80
2023-10-26T04:53:14.058Z,99674.34
2023-10-26T04:54:15.899Z,99673.45
2023-10-26T04:55:17.734Z,99673.45
2023-10-26T04:56:19.603Z,99683.03
2023-10-26T04:57:21.365Z,99676.89
2023-10-26T04:58:23.209Z,99681.23
2023-10-26T05:00:29.515Z,99693.44
2023-10-26T05:01:32.945Z,99693.44
2023-10-26T05:02:34.885Z,99689.94
2023-10-26T05:03:36.662Z,99693.41
2023-10-26T05:04:38.476Z,99690.78
2023-10-26T05:05:40.344Z,99697.75
2023-10-26T05:06:42.259Z,99692.52
2023-10-26T05:07:44.120Z,99695.11
2023-10-26T05:08:45.910Z,99695.95
2023-10-26T05:09:47.772Z,99695.95
2023-10-26T05:10:49.965Z,99696.77
2023-10-26T05:11:51.837Z,99697.66
2023-10-26T05:12:54.202Z,99693.27
2023-10-26T05:13:56.085Z,99692.39
2023-10-26T05:14:58.030Z,99694.09
2023-10-26T05:15:59.914Z,99701.05
2023-10-26T05:17:01.663Z,99698.44
2023-10-26T05:18:03.744Z,99692.33
2023-10-26T05:19:05.684Z,99694.94
2023-10-26T05:20:07.628Z,99694.02
2023-10-26T05:21:09.391Z,99694.91
2023-10-26T05:22:11.126Z,99690.49
2023-10-26T05:23:12.971Z,99693.96
2023-10-26T05:24:14.850Z,99702.69
2023-10-26T05:25:16.688Z,99705.31
2023-10-26T05:26:18.632Z,99703.55
2023-10-26T05:27:20.571Z,99695.66
2023-10-26T05:28:22.479Z,99701.78
2023-10-26T05:29:24.344Z,99705.24
2023-10-26T05:30:26.221Z,99706.09
2023-10-26T05:31:28.071Z,99713.06
2023-10-26T05:32:29.928Z,99713.02
2023-10-26T05:33:32.185Z,99705.17
2023-10-26T05:34:35.505Z,99716.49
2023-10-26T05:35:37.336Z,99707.76
2023-10-26T05:36:39.462Z,99707.76
2023-10-26T05:37:41.325Z,99707.76
2023-10-26T05:38:45.896Z,99705.99
2023-10-26T05:39:46.854Z,99712.96
2023-10-26T05:40:48.919Z,99718.19
2023-10-26T05:41:50.926Z,99719.96
2023-10-26T05:42:52.876Z,99733.02
2023-10-26T05:43:54.831Z,99724.28
2023-10-26T05:44:56.840Z,99726.86
2023-10-26T05:45:58.958Z,99732.98
2023-10-26T05:47:01.103Z,99730.36
2023-10-26T05:48:03.122Z,99732.06
2023-10-26T05:49:05.007Z,99732.98
2023-10-26T05:50:06.982Z,99737.30
2023-10-26T05:51:08.929Z,99734.68
2023-10-26T05:52:10.796Z,99740.80
2023-10-26T05:53:12.657Z,99739.88
2023-10-26T05:54:14.541Z,99739.84
2023-10-26T05:55:16.515Z,99737.20
2023-10-26T05:56:18.369Z,99726.73
2023-10-26T05:57:20.286Z,99729.31
2023-10-26T05:58:22.129Z,99721.42
2023-10-26T05:59:23.970Z,99717.92
2023-10-26T06:00:25.877Z,99720.51
2023-10-26T06:01:27.855Z,99721.36
2023-10-26T06:02:29.776Z,99726.56
2023-10-26T06:03:31.861Z,99718.70
2023-10-26T06:04:33.761Z,99720.44
2023-10-26T06:05:35.639Z,99722.17
2023-10-26T06:06:37.628Z,99724.76
2023-10-26T06:07:39.357Z,99726.48
2023-10-26T06:08:41.399Z,99716.88
2023-10-26T06:09:43.268Z,99723.84
2023-10-26T06:10:45.374Z,99716.84
2023-10-26T06:11:47.236Z,99712.41
2023-10-26T06:12:49.080Z,99715.00
2023-10-26T06:13:50.931Z,99721.12
2023-10-26T06:14:52.683Z,99721.93
2023-10-26T06:15:54.653Z,99716.70
2023-10-26T06:16:56.729Z,99718.42
2023-10-26T06:17:58.659Z,99711.39
2023-10-26T06:19:00.529Z,99709.63
2023-10-26T06:20:02.374Z,99710.50
2023-10-26T06:21:04.301Z,99703.46
2023-10-26T06:22:06.122Z,99697.38
2023-10-26T06:23:07.907Z,99699.95
2023-10-26T06:24:09.820Z,99697.30
2023-10-26T06:25:11.615Z,99687.72
2023-10-26T06:26:13.724Z,99693.77
2023-10-26T06:27:15.583Z,99695.47
2023-10-26T06:28:17.428Z,99697.20
2023-10-26T06:29:19.278Z,99693.69
2023-10-26T06:30:21.252Z,99693.69
2023-10-26T06:31:23.237Z,99697.97
2023-10-26T06:32:25.124Z,99692.77
2023-10-26T06:33:27.104Z,99703.13
2023-10-26T06:34:28.900Z,99709.25
2023-10-26T06:35:30.663Z,99710.11
2023-10-26T06:36:32.638Z,99723.16
2023-10-26T06:37:34.523Z,99726.67
2023-10-26T06:38:36.396Z,99725.78
2023-10-26T06:39:38.242Z,99728.41
2023-10-26T06:40:40.110Z,99721.47
2023-10-26T06:41:41.982Z,99721.47
2023-10-26T06:42:43.838Z,99716.16
2023-10-26T06:43:45.609Z,99720.51
2023-10-26T06:44:47.456Z,99716.12
2023-10-26T06:45:49.363Z,99724.86
2023-10-26T06:46:51.196Z,99717.00
2023-10-26T06:47:52.966Z,99716.97
2023-10-26T06:48:54.742Z,99728.30
2023-10-26T06:49:56.640Z,99734.37
2023-10-26T06:50:58.547Z,99734.37
2023-10-26T06:52:00.508Z,99740.54
2023-10-26T06:53:02.334Z,99743.97
2023-10-26T06:54:04.270Z,99750.98
2023-10-26T06:55:15.699Z,99742.23
2023-10-26T06:56:09.938Z,99740.54
2023-10-26T06:57:11.833Z,99746.62
2023-10-26T06:58:13.777Z,99752.72
2023-10-26T06:59:15.556Z,99754.45
2023-10-26T07:00:17.506Z,99751.91
2023-10-26T07:01:21.131Z,99758.80
2023-10-26T07:02:23.162Z,99753.53
2023-10-26T07:03:25.006Z,99764.86
2023-10-26T07:04:26.870Z,99762.20
2023-10-26T07:05:28.762Z,99753.48
2023-10-26T07:06:30.739Z,99756.08
2023-10-26T07:07:32.721Z,99756.92
2023-10-26T07:08:34.595Z,99756.89
2023-10-26T07:09:36.484Z,99759.47
2023-10-26T07:10:38.388Z,99756.81
2023-10-26T07:11:40.245Z,99762.02
2023-10-26T07:12:42.156Z,99761.13
2023-10-26T07:13:44.007Z,99762.86
2023-10-26T07:14:45.766Z,99765.45
2023-10-26T07:15:47.646Z,99761.02
2023-10-26T07:16:49.693Z,99767.11
2023-10-26T07:17:51.504Z,99760.98
2023-10-26T07:18:53.345Z,99758.36
2023-10-26T07:19:55.189Z,99752.20
2023-10-26T07:20:57.072Z,99752.20
2023-10-26T07:21:58.951Z,99747.81
2023-10-26T07:23:00.826Z,99737.33
2023-10-26T07:24:02.621Z,99735.56
2023-10-26T07:25:04.483Z,99739.06
2023-10-26T07:26:06.630Z,99729.42
2023-10-26T07:27:08.521Z,99726.80
2023-10-26T07:28:10.381Z,99722.41
2023-10-26T07:29:12.253Z,99721.53
2023-10-26T07:30:14.228Z,99720.67
2023-10-26T07:31:16.059Z,99715.40
2023-10-26T07:32:17.916Z,99717.98
2023-10-26T07:33:19.954Z,99717.98
2023-10-26T07:34:22.016Z,99714.47
2023-10-26T07:35:23.918Z,99709.19
2023-10-26T07:36:25.823Z,99709.19
2023-10-26T07:37:27.674Z,99706.48
2023-10-26T07:38:36.981Z,99713.47
2023-10-26T07:39:46.039Z,99709.96
2023-10-26T07:40:36.853Z,99711.70
2023-10-26T07:42:07.988Z,99715.12
2023-10-26T07:42:42.306Z,99715.98
2023-10-26T07:43:45.640Z,99719.44
2023-10-26T07:44:47.850Z,99721.14
2023-10-26T07:45:49.766Z,99722.88
2023-10-26T07:46:52.222Z,99724.60
2023-10-26T07:47:54.005Z,99728.07
2023-10-26T07:48:56.040Z,99725.41
2023-10-26T07:49:57.921Z,99728.88
2023-10-26T07:50:59.774Z,99733.23
2023-10-26T07:52:01.633Z,99729.72
2023-10-26T07:53:03.369Z,99733.16
2023-10-26T07:55:08.095Z,99735.70
2023-10-26T07:56:11.069Z,99728.72
2023-10-26T07:57:12.972Z,99733.04
2023-10-26T07:58:14.733Z,99728.64
2023-10-26T07:59:16.664Z,99737.31
2023-10-26T08:00:18.637Z,99734.65
2023-10-26T08:01:21.426Z,99734.61
2023-10-26T08:02:23.414Z,99739.77
2023-10-26T08:03:25.428Z,99741.47
2023-10-26T08:04:27.532Z,99737.88
2023-10-26T08:05:29.434Z,99734.33
2023-10-26T08:06:31.289Z,99737.75
2023-10-26T08:07:33.192Z,99737.66
2023-10-26T08:08:35.000Z,99742.86
2023-10-26T08:09:36.871Z,99755.93
2023-10-26T08:10:38.829Z,99757.59
2023-10-26T08:11:40.833Z,99755.80
2023-10-26T08:12:42.568Z,99760.97
2023-10-26T08:13:44.438Z,99759.20
2023-10-26T08:16:32.173Z,99757.42
2023-10-26T08:16:35.498Z,99756.53
2023-10-26T08:16:53.969Z,99758.30
2023-10-26T08:17:56.299Z,99764.40
2023-10-26T08:18:58.282Z,99764.44
2023-10-26T08:20:01.390Z,99761.82
2023-10-26T08:21:03.349Z,99766.22
2023-10-26T08:22:05.158Z,99765.29
2023-10-26T08:23:07.038Z,99765.29
2023-10-26T08:24:08.857Z,99777.56
2023-10-26T08:25:10.771Z,99767.91
2023-10-26T08:26:12.910Z,99768.84
2023-10-26T08:27:14.780Z,99772.31
2023-10-26T08:28:16.715Z,99771.46
2023-10-26T08:29:27.246Z,99774.94
2023-10-26T08:30:22.552Z,99771.46
2023-10-26T08:31:24.486Z,99765.29
2023-10-26T08:32:26.552Z,99768.84
2023-10-26T08:33:28.479Z,99775.83
2023-10-26T08:34:30.438Z,99767.06
2023-10-26T08:35:32.336Z,99767.91
2023-10-26T08:36:34.235Z,99768.80
2023-10-26T08:37:36.093Z,99771.46
2023-10-26T08:38:37.807Z,99771.46
2023-10-26T08:39:39.690Z,99773.16
2023-10-26T08:40:41.730Z,99768.80
2023-10-26T08:41:43.613Z,99774.89
2023-10-26T08:42:45.518Z,99769.65
2023-10-26T08:43:47.408Z,99771.38
2023-10-26T08:44:49.209Z,99771.38
2023-10-26T08:45:51.072Z,99768.76
2023-10-26T08:46:52.888Z,99771.38
2023-10-26T08:47:54.798Z,99768.76
2023-10-26T08:48:56.615Z,99771.38
2023-10-26T08:50:12.307Z,99769.65
2023-10-26T08:51:02.025Z,99776.67
2023-10-26T08:52:03.863Z,99774.94
2023-10-26T08:53:05.869Z,99776.67
2023-10-26T08:54:13.761Z,99769.69
2023-10-26T08:55:15.632Z,99765.29
2023-10-26T08:56:17.599Z,99771.42
2023-10-26T08:57:19.514Z,99772.31
2023-10-26T08:58:21.316Z,99763.55
2023-10-26T08:59:23.132Z,99774.05
2023-10-26T09:00:24.980Z,99766.17
2023-10-26T09:01:26.938Z,99767.91
2023-10-26T09:02:28.961Z,99767.88
2023-10-26T09:03:31.090Z,99770.54
2023-10-26T09:04:33.063Z,99768.80
2023-10-26T09:05:34.916Z,99763.55
2023-10-26T09:06:36.777Z,99776.62
2023-10-26T09:07:38.650Z,99773.13
2023-10-26T09:08:40.494Z,99768.76
2023-10-26T09:09:42.477Z,99767.02
2023-10-26T09:10:44.346Z,99773.08
2023-10-26T09:11:46.378Z,99766.98
2023-10-26T09:12:48.223Z,99771.34
2023-10-26T09:13:50.096Z,99769.61
2023-10-26T09:14:52.099Z,99766.13
2023-10-26T09:15:54.074Z,99764.36
2023-10-26T09:16:56.336Z,99763.51
2023-10-26T09:17:58.310Z,99762.63
2023-10-26T09:19:00.171Z,99767.88
2023-10-26T09:20:02.110Z,99759.96
2023-10-26T09:21:04.022Z,99763.51
2023-10-26T09:22:05.893Z,99753.91
2023-10-26T09:23:07.742Z,99759.11
2023-10-26T09:24:09.565Z,99758.98
2023-10-26T09:25:11.314Z,99760.50
2023-10-26T09:26:13.370Z,99762.02
2023-10-26T09:27:15.232Z,99755.61
2023-10-26T09:28:17.059Z,99746.59
2023-10-26T09:29:18.923Z,99748.05
2023-10-26T09:30:20.785Z,99744.20
2023-10-26T09:31:22.669Z,99742.09
2023-10-26T09:32:24.631Z,99740.95
2023-10-26T09:33:26.614Z,99737.14
2023-10-26T09:34:28.602Z,99731.64
2023-10-26T09:35:30.723Z,99739.23
2023-10-26T09:36:32.620Z,99732.08
2023-10-26T09:37:34.390Z,99737.98
2023-10-26T09:38:36.228Z,99738.71
2023-10-26T09:39:38.062Z,99749.02
2023-10-26T09:40:39.919Z,99744.45
2023-10-26T09:41:41.817Z,99745.29
2023-10-26T09:42:43.694Z,99741.67
2023-10-26T09:43:45.586Z,99739.72
2023-10-26T09:44:47.636Z,99743.89
2023-10-26T09:45:49.788Z,99742.78
2023-10-26T09:46:51.907Z,99734.76
2023-10-26T09:47:53.963Z,99739.80
2023-10-26T09:48:56.041Z,99746.63
2023-10-26T09:49:57.880Z,99745.62
2023-10-26T09:50:59.722Z,99748.15
2023-10-26T09:52:01.553Z,99748.09
2023-10-26T09:53:03.523Z,99742.83
2023-10-26T09:54:05.509Z,99748.89
2023-10-26T09:55:07.301Z,99750.61
2023-10-26T09:56:09.855Z,99746.97
2023-10-26T09:57:11.684Z,99750.39
2023-10-26T09:58:13.464Z,99758.18
2023-10-26T09:59:15.278Z,99753.77
2023-10-26T10:00:17.137Z,99755.55
2023-10-26T10:01:18.974Z,99754.70
2023-10-26T10:02:20.792Z,99756.39
2023-10-26T10:03:22.694Z,99755.55
2023-10-26T10:04:24.489Z,99752.86
2023-10-26T10:05:26.338Z,99747.55
2023-10-26T10:06:28.246Z,99742.22
2023-10-26T10:07:30.075Z,99742.99
2023-10-26T10:08:31.960Z,99745.68
2023-10-26T10:09:33.815Z,99736.11
2023-10-26T10:10:35.629Z,99737.86
2023-10-26T10:11:37.459Z,99729.12
2023-10-26T10:12:39.427Z,99731.70
2023-10-26T10:13:41.333Z,99724.63
2023-10-26T10:14:43.499Z,99729.78
2023-10-26T10:15:45.504Z,99720.83
2023-10-26T10:16:47.784Z,99718.09
2023-10-26T10:17:50.149Z,99718.85
2023-10-26T10:18:52.096Z,99721.31
2023-10-26T10:19:53.894Z,99727.31
2023-10-26T10:20:55.744Z,99723.71
2023-10-26T10:21:57.733Z,99715.70
2023-10-26T10:22:59.664Z,99719.13
2023-10-26T10:24:01.530Z,99723.42
2023-10-26T10:25:05.712Z,99734.69
2023-10-26T10:26:23.427Z,99739.89
2023-10-26T10:27:10.825Z,99746.95
2023-10-26T10:28:12.690Z,99753.12
2023-10-26T10:29:14.568Z,99750.48
2023-10-26T10:30:16.751Z,99750.55
2023-10-26T10:31:18.587Z,99748.91
2023-10-26T10:32:20.508Z,99742.81
2023-10-26T10:33:22.437Z,99749.02
2023-10-26T10:34:24.483Z,99759.50
2023-10-26T10:35:26.338Z,99753.41
2023-10-26T10:36:28.174Z,99757.94
2023-10-26T10:37:29.932Z,99761.48
2023-10-26T10:38:31.780Z,99761.53
2023-10-26T10:39:33.657Z,99766.86
2023-10-26T10:40:35.510Z,99762.50
2023-10-26T10:41:37.340Z,99761.65
2023-10-26T10:42:39.196Z,99766.02
2023-10-26T10:43:41.040Z,99760.75
2023-10-26T10:44:43.692Z,99766.86
2023-10-26T10:45:45.735Z,99774.76
2023-10-26T10:46:48.172Z,99773.03
2023-10-26T10:47:50.142Z,99773.20
2023-10-26T10:48:52.014Z,99775.04
2023-10-26T10:49:53.964Z,99776.94
2023-10-26T10:50:55.806Z,99778.69
2023-10-26T10:51:57.987Z,99779.67
2023-10-26T10:52:59.828Z,99776.22
2023-10-26T10:54:06.079Z,99782.47
2023-10-26T10:55:11.136Z,99778.17
2023-10-26T10:56:09.336Z,99775.59
2023-10-26T10:57:11.176Z,99769.50
2023-10-26T10:58:13.115Z,99778.33
2023-10-26T10:59:14.987Z,99780.14
2023-10-26T11:00:17.250Z,99772.24
2023-10-26T11:01:19.166Z,99780.14
2023-10-26T11:02:20.880Z,99784.55
2023-10-26T11:03:22.859Z,99777.50
2023-10-26T11:04:24.749Z,99775.75
2023-10-26T11:05:26.680Z,99781.87
2023-10-26T11:06:28.520Z,99783.59
2023-10-26T11:07:30.346Z,99783.59
2023-10-26T11:08:32.229Z,99784.45
2023-10-26T11:09:34.167Z,99790.61
2023-10-26T11:10:36.026Z,99798.45
2023-10-26T11:11:37.896Z,99782.72
2023-10-26T11:12:39.803Z,99785.34
2023-10-26T11:13:41.656Z,99780.08
2023-10-26T11:14:43.514Z,99785.34
2023-10-26T11:15:45.494Z,99785.34
2023-10-26T11:16:47.450Z,99773.97
2023-10-26T11:17:49.415Z,99779.18
2023-10-26T11:18:51.681Z,99779.18
2023-10-26T11:19:53.489Z,99777.40
2023-10-26T11:20:55.368Z,99782.61
2023-10-26T11:21:57.247Z,99775.53
2023-10-26T11:22:59.069Z,99778.91
2023-10-26T11:24:00.828Z,99779.73
2023-10-26T11:25:02.724Z,99769.20
2023-10-26T11:26:04.650Z,99766.52
2023-10-26T11:27:06.529Z,99770.79
2023-10-26T11:28:08.418Z,99766.34
2023-10-26T11:29:10.229Z,99766.34
2023-10-26T11:30:12.382Z,99766.34
2023-10-26T11:31:14.374Z,99780.25
2023-10-26T11:32:16.098Z,99776.77
2023-10-26T11:33:17.939Z,99781.98
2023-10-26T11:34:19.798Z,99784.61
2023-10-26T11:35:21.622Z,99786.36
2023-10-26T11:36:23.801Z,99787.24
2023-10-26T11:37:25.652Z,99790.72
2023-10-26T11:38:27.490Z,99799.47
2023-10-26T11:39:29.410Z,99796.78
2023-10-26T11:40:31.418Z,99802.05
2023-10-26T11:41:33.280Z,99798.52
2023-10-26T11:42:35.183Z,99795.03
2023-10-26T11:43:36.994Z,99793.25
2023-10-26T11:45:43.333Z,99800.30
2023-10-26T11:46:45.251Z,99798.52
2023-10-26T11:47:47.092Z,99798.56
2023-10-26T11:48:49.005Z,99799.52
2023-10-26T11:49:50.886Z,99798.67
2023-10-26T11:50:52.751Z,99804.84
2023-10-26T11:51:59.882Z,99804.05
2023-10-26T11:52:58.246Z,99805.84
2023-10-26T11:54:00.111Z,99807.64
2023-10-26T11:55:01.983Z,99808.58
2023-10-26T11:56:03.882Z,99803.37
2023-10-26T11:57:05.748Z,99807.75
2023-10-26T11:58:07.597Z,99800.79
2023-10-26T11:59:09.446Z,99806.95
2023-10-26T12:00:11.497Z,99806.16
2023-10-26T12:01:13.370Z,99797.44
2023-10-26T12:02:15.278Z,99815.02
2023-10-26T12:03:17.171Z,99804.55
2023-10-26T12:04:19.095Z,99809.80
2023-10-26T12:05:21.052Z,99805.45
2023-10-26T12:06:22.864Z,99802.13
2023-10-26T12:07:24.768Z,99802.13
2023-10-26T12:08:26.614Z,99810.81
2023-10-26T12:09:28.530Z,99808.23
2023-10-26T12:10:30.426Z,99807.45
2023-10-26T12:11:33.006Z,99809.25